Time;durP1;ratioP1;P1;durP2;ratioP2;P2;SDS_P1;SDS_P2;PMS_P1;PMS_P2;Temp;Humidity;BMP_temperature;BMP_pressure;BME280_temperature;BME280_humidity;BME280_pressure;Samples;Min_cycle;Max_cycle;Signal;HPM_P1;HPM_P2
2023/06/16 00:01:04;;;;;;;1999.90;999.90;;;20.10;24.70;;;;;;5014838;28;20576;-68
2023/06/16 00:03:33;;;;;;;1999.90;999.90;;;20.00;24.90;;;;;;5015180;28;20491;-68
2023/06/16 00:06:14;;;;;;;1999.90;999.90;;;19.80;26.20;;;;;;5015087;28;20515;-68
2023/06/16 00:08:45;;;;;;;1999.90;999.90;;;19.80;27.40;;;;;;5015230;28;20910;-68
2023/06/16 00:11:21;;;;;;;1999.90;999.90;;;19.60;28.70;;;;;;5014699;28;20402;-68
2023/06/16 00:13:47;;;;;;;1999.90;999.90;;;19.50;30.40;;;;;;5015134;28;20980;-68
2023/06/16 00:16:14;;;;;;;1999.90;999.90;;;19.40;34.60;;;;;;5014710;28;20416;-68
2023/06/16 00:18:43;;;;;;;1999.90;999.90;;;19.20;37.60;;;;;;5024132;28;20808;-68
2023/06/16 00:21:10;;;;;;;1999.90;999.90;;;19.10;40.80;;;;;;5024813;28;20408;-68
2023/06/16 00:23:36;;;;;;;1999.90;999.90;;;19.00;44.10;;;;;;5023928;28;20524;-68
2023/06/16 00:26:02;;;;;;;1999.90;999.90;;;19.00;45.90;;;;;;5024900;28;20468;-68
2023/06/16 00:28:27;;;;;;;1999.90;999.90;;;19.00;45.60;;;;;;5023487;28;20673;-69
2023/06/16 00:30:53;;;;;;;1999.90;999.90;;;18.90;51.70;;;;;;5021974;28;20180;-67
2023/06/16 00:33:19;;;;;;;1999.90;999.90;;;18.80;54.10;;;;;;5023214;28;20221;-68
2023/06/16 00:35:45;;;;;;;1999.90;999.90;;;18.70;57.30;;;;;;5021849;28;20205;-68
2023/06/16 00:38:11;;;;;;;1999.90;999.90;;;18.70;61.20;;;;;;5023345;28;20201;-68
2023/06/16 00:40:37;;;;;;;1999.90;999.90;;;18.70;62.40;;;;;;5023790;28;20412;-68
2023/06/16 00:43:03;;;;;;;1999.90;999.90;;;18.70;57.40;;;;;;5022349;28;20455;-68
2023/06/16 00:45:29;;;;;;;1999.90;999.90;;;18.80;56.80;;;;;;5022669;28;20475;-68
2023/06/16 00:47:59;;;;;;;1999.90;999.90;;;18.90;55.40;;;;;;5021561;28;20176;-68
2023/06/16 00:50:25;;;;;;;1999.90;999.90;;;18.90;54.70;;;;;;5022210;28;20408;-67
2023/06/16 00:52:51;;;;;;;1999.90;999.90;;;18.90;54.40;;;;;;5020258;28;20413;-68
2023/06/16 00:55:21;;;;;;;1999.90;999.90;;;18.90;54.20;;;;;;5020643;28;20795;-68
2023/06/16 00:57:49;;;;;;;1999.90;999.90;;;18.90;54.30;;;;;;5021370;28;20171;-68
2023/06/16 01:00:15;;;;;;;1999.90;999.90;;;18.90;54.10;;;;;;5022233;28;20414;-68
2023/06/16 01:02:40;;;;;;;1999.90;999.90;;;18.80;54.20;;;;;;5021086;28;20421;-68
2023/06/16 01:05:08;;;;;;;1999.90;999.90;;;18.90;54.30;;;;;;5022093;28;20540;-68
2023/06/16 01:07:52;;;;;;;1999.90;999.90;;;18.90;54.00;;;;;;5021776;28;20549;-69
2023/06/16 01:10:28;;;;;;;1999.90;999.90;;;18.90;55.00;;;;;;5022283;28;20401;-68
2023/06/16 01:13:16;;;;;;;1999.90;999.90;;;18.80;56.40;;;;;;5021406;28;20490;-68
2023/06/16 01:15:44;;;;;;;1999.90;999.90;;;18.80;59.00;;;;;;5021885;28;20400;-68
2023/06/16 01:18:14;;;;;;;1999.90;999.90;;;18.70;58.50;;;;;;5022250;28;20416;-68
2023/06/16 01:20:51;;;;;;;1999.90;999.90;;;18.60;57.00;;;;;;5022613;28;20407;-68
2023/06/16 01:23:50;;;;;;;1999.90;999.90;;;18.70;57.50;;;;;;5022190;28;20433;-68
2023/06/16 01:26:16;;;;;;;1999.90;999.90;;;18.70;58.10;;;;;;5021401;28;20643;-68
2023/06/16 01:28:45;;;;;;;1999.90;999.90;;;18.70;58.10;;;;;;5021925;28;20425;-68
2023/06/16 01:31:12;;;;;;;1999.90;999.90;;;18.70;58.00;;;;;;5021651;28;20413;-68
2023/06/16 01:33:39;;;;;;;1999.90;999.90;;;18.70;57.10;;;;;;5021611;28;20432;-68
2023/06/16 01:36:05;;;;;;;1999.90;999.90;;;18.70;57.40;;;;;;5021188;28;20414;-68
2023/06/16 01:38:32;;;;;;;1999.90;999.90;;;18.70;57.40;;;;;;5018937;28;20475;-68
2023/06/16 01:40:59;;;;;;;1999.90;999.90;;;18.70;56.50;;;;;;5020211;28;20408;-68
2023/06/16 01:43:25;;;;;;;1999.90;999.90;;;18.70;57.00;;;;;;5020301;28;20417;-67
2023/06/16 01:45:51;;;;;;;1999.90;999.90;;;18.70;56.80;;;;;;5021368;28;20453;-68
2023/06/16 01:48:20;;;;;;;1999.90;999.90;;;18.70;57.00;;;;;;5021070;28;20226;-68
2023/06/16 01:50:47;;;;;;;1999.90;999.90;;;18.70;56.70;;;;;;5019991;28;20859;-68
2023/06/16 01:53:12;;;;;;;1999.90;999.90;;;18.70;56.00;;;;;;5018205;28;20932;-68
2023/06/16 01:55:38;;;;;;;1999.90;999.90;;;18.60;56.00;;;;;;5020795;28;20407;-68
2023/06/16 01:58:05;;;;;;;1999.90;999.90;;;18.60;56.20;;;;;;5019854;28;20539;-68
2023/06/16 02:00:40;;;;;;;1999.90;999.90;;;18.60;56.10;;;;;;5020224;28;20232;-68
2023/06/16 02:03:20;;;;;;;1999.90;999.90;;;18.60;57.10;;;;;;5020253;28;20432;-68
2023/06/16 02:05:50;;;;;;;1999.90;999.90;;;18.50;57.20;;;;;;5021318;28;20450;-68
2023/06/16 02:08:20;;;;;;;1999.90;999.90;;;18.60;58.30;;;;;;5020983;28;20407;-68
2023/06/16 02:10:47;;;;;;;1999.90;999.90;;;18.60;58.40;;;;;;5020574;28;20465;-67
2023/06/16 02:13:13;;;;;;;1999.90;999.90;;;18.50;58.60;;;;;;5019633;28;20408;-68
2023/06/16 02:15:38;;;;;;;1999.90;999.90;;;18.40;59.40;;;;;;5020669;28;20476;-68
2023/06/16 02:18:04;;;;;;;1999.90;999.90;;;18.40;60.10;;;;;;5018987;28;20176;-68
2023/06/16 02:20:30;;;;;;;1999.90;999.90;;;18.40;60.40;;;;;;5019494;28;20169;-68
2023/06/16 02:22:55;;;;;;;1999.90;999.90;;;18.40;61.40;;;;;;5020176;28;20184;-68
2023/06/16 02:25:21;;;;;;;1999.90;999.90;;;18.30;61.40;;;;;;5019409;28;20235;-68
2023/06/16 02:27:47;;;;;;;1999.90;999.90;;;18.30;62.20;;;;;;5016804;28;20200;-68
2023/06/16 02:30:13;;;;;;;1999.90;999.90;;;18.20;63.00;;;;;;5012668;28;20664;-68
2023/06/16 02:32:39;;;;;;;1999.90;999.90;;;18.20;64.10;;;;;;5012174;28;20403;-68
2023/06/16 02:35:06;;;;;;;1999.90;999.90;;;18.10;65.30;;;;;;5012240;28;20514;-68
2023/06/16 02:37:35;;;;;;;1999.90;999.90;;;18.10;66.70;;;;;;5012354;28;20227;-68
2023/06/16 02:40:02;;;;;;;1999.90;999.90;;;18.10;67.70;;;;;;5012303;28;20493;-68
2023/06/16 02:42:27;;;;;;;1999.90;999.90;;;18.10;69.00;;;;;;5012140;28;20408;-68
2023/06/16 02:44:53;;;;;;;1999.90;999.90;;;18.00;71.30;;;;;;5012039;28;21036;-69
2023/06/16 02:47:18;;;;;;;1999.90;999.90;;;18.00;72.40;;;;;;5012217;28;20172;-69
2023/06/16 02:49:45;;;;;;;1999.90;999.90;;;18.00;74.50;;;;;;5017008;28;20171;-68
2023/06/16 02:52:11;;;;;;;1999.90;999.90;;;17.90;76.30;;;;;;5019617;28;20177;-67
2023/06/16 02:54:37;;;;;;;1999.90;999.90;;;17.90;77.70;;;;;;5024306;28;20420;-68
2023/06/16 02:57:03;;;;;;;1999.90;999.90;;;17.80;80.10;;;;;;5024750;28;20414;-68
2023/06/16 02:59:29;;;;;;;1999.90;999.90;;;17.70;82.90;;;;;;5024719;28;20407;-68
2023/06/16 03:01:55;;;;;;;1999.90;999.90;;;17.70;85.80;;;;;;5021481;28;20165;-68
2023/06/16 03:04:21;;;;;;;1999.90;999.90;;;17.60;87.40;;;;;;5023695;28;20430;-68
2023/06/16 03:06:47;;;;;;;1999.90;999.90;;;17.70;89.70;;;;;;5023576;28;20211;-68
2023/06/16 03:09:12;;;;;;;1999.90;999.90;;;17.70;90.20;;;;;;5023825;28;20402;-68
2023/06/16 03:11:38;;;;;;;1999.90;999.90;;;17.60;91.10;;;;;;5024018;28;20160;-68
2023/06/16 03:14:04;;;;;;;1999.90;999.90;;;17.50;92.10;;;;;;5024416;28;20186;-68
2023/06/16 03:16:29;;;;;;;1999.90;999.90;;;17.50;93.30;;;;;;5024210;28;20421;-68
2023/06/16 03:18:55;;;;;;;1999.90;999.90;;;17.40;94.50;;;;;;5025961;28;20546;-68
2023/06/16 03:21:21;;;;;;;1999.90;999.90;;;17.40;95.10;;;;;;5025075;28;20421;-68
2023/06/16 03:23:48;;;;;;;1999.90;999.90;;;17.40;95.00;;;;;;5026028;28;20200;-67
2023/06/16 03:26:13;;;;;;;1999.90;999.90;;;17.40;96.00;;;;;;5025370;28;20452;-68
2023/06/16 03:28:40;;;;;;;1999.90;999.90;;;17.40;95.80;;;;;;5026782;28;20422;-68
2023/06/16 03:31:06;;;;;;;1999.90;999.90;;;17.30;96.50;;;;;;5025411;28;20177;-68
2023/06/16 03:33:31;;;;;;;1999.90;999.90;;;17.40;96.40;;;;;;5024546;28;20944;-68
2023/06/16 03:35:57;;;;;;;1999.90;999.90;;;17.30;96.70;;;;;;5024543;28;20179;-68
2023/06/16 03:38:23;;;;;;;1999.90;999.90;;;17.40;97.00;;;;;;5023759;28;20174;-68
2023/06/16 03:40:48;;;;;;;1999.90;999.90;;;17.30;97.80;;;;;;5024293;28;20824;-67
2023/06/16 03:43:15;;;;;;;1999.90;999.90;;;17.30;98.60;;;;;;5022721;28;20200;-68
2023/06/16 03:45:40;;;;;;;1999.90;999.90;;;17.30;99.10;;;;;;5019590;28;20233;-68
2023/06/16 03:48:07;;;;;;;1999.90;999.90;;;17.20;99.30;;;;;;5018336;28;20828;-68
2023/06/16 03:50:33;;;;;;;1999.90;999.90;;;17.20;99.90;;;;;;5018286;28;20179;-68
2023/06/16 03:52:58;;;;;;;1999.90;999.90;;;17.20;99.90;;;;;;5018009;28;20503;-67
2023/06/16 03:55:24;;;;;;;1999.90;999.90;;;17.30;99.90;;;;;;5018138;28;20196;-68
2023/06/16 03:57:50;;;;;;;1999.90;999.90;;;17.30;99.90;;;;;;5018338;28;20191;-68
2023/06/16 04:00:16;;;;;;;1999.90;999.90;;;17.30;99.90;;;;;;5018289;28;20213;-68
2023/06/16 04:02:42;;;;;;;1999.90;999.90;;;17.30;99.90;;;;;;5017922;28;20461;-68
2023/06/16 04:05:09;;;;;;;1999.90;999.90;;;17.40;99.90;;;;;;5015987;28;20215;-68
2023/06/16 04:07:35;;;;;;;1999.90;999.90;;;17.40;99.90;;;;;;5015126;28;20189;-68
2023/06/16 04:10:01;;;;;;;1999.90;999.90;;;17.40;99.90;;;;;;5014981;28;20447;-68
2023/06/16 04:12:27;;;;;;;1999.90;999.90;;;17.40;99.90;;;;;;5014585;28;20409;-68
2023/06/16 04:14:52;;;;;;;1999.90;999.90;;;17.40;99.90;;;;;;5014901;28;20432;-68
2023/06/16 04:17:18;;;;;;;1999.90;999.90;;;17.40;99.90;;;;;;5014783;28;20181;-68
2023/06/16 04:19:45;;;;;;;1999.90;999.90;;;17.40;99.90;;;;;;5014822;28;20187;-68
2023/06/16 04:22:11;;;;;;;1999.90;999.90;;;17.50;99.90;;;;;;5014563;28;20188;-68
2023/06/16 04:24:37;;;;;;;1999.90;999.90;;;17.40;99.90;;;;;;5014447;28;20828;-68
2023/06/16 04:27:03;;;;;;;1999.90;999.90;;;17.30;99.90;;;;;;5014742;28;20180;-68
2023/06/16 04:29:28;;;;;;;1999.90;999.90;;;17.20;99.90;;;;;;5014576;28;20276;-68
2023/06/16 04:31:59;;;;;;;1999.90;999.90;;;17.00;99.90;;;;;;5014190;28;20552;-68
2023/06/16 04:34:26;;;;;;;1999.90;999.90;;;16.80;99.90;;;;;;5014656;28;20702;-68
2023/06/16 04:36:57;;;;;;;1999.90;999.90;;;16.80;99.90;;;;;;5014600;28;20418;-68
2023/06/16 04:39:23;;;;;;;1999.90;999.90;;;16.90;99.90;;;;;;5014377;28;20415;-68
2023/06/16 04:41:50;;;;;;;1999.90;999.90;;;17.10;99.90;;;;;;5014130;28;20778;-68
2023/06/16 04:44:15;;;;;;;1999.90;999.90;;;17.20;99.90;;;;;;5013983;28;20465;-68
2023/06/16 04:46:41;;;;;;;1999.90;999.90;;;17.30;99.90;;;;;;5014291;28;20420;-68
2023/06/16 04:49:06;;;;;;;1999.90;999.90;;;17.40;99.90;;;;;;5014449;28;20260;-68
2023/06/16 04:51:33;;;;;;;1999.90;999.90;;;17.50;99.90;;;;;;5016705;28;20181;-68
2023/06/16 04:54:00;;;;;;;1999.90;999.90;;;17.50;99.90;;;;;;5021245;28;20202;-68
2023/06/16 04:56:25;;;;;;;1999.90;999.90;;;17.60;99.90;;;;;;5021118;28;20743;-68
2023/06/16 04:58:51;;;;;;;1999.90;999.90;;;17.70;99.90;;;;;;5021071;28;20502;-68
2023/06/16 05:01:16;;;;;;;1999.90;999.90;;;17.70;99.90;;;;;;5021851;28;20180;-68
2023/06/16 05:03:42;;;;;;;1999.90;999.90;;;17.80;99.90;;;;;;5023366;28;20203;-67
2023/06/16 05:06:07;;;;;;;1999.90;999.90;;;17.90;99.90;;;;;;5021012;28;20271;-68
2023/06/16 05:08:33;;;;;;;1999.90;999.90;;;17.90;99.90;;;;;;5021593;28;20793;-68
2023/06/16 05:10:59;;;;;;;1999.90;999.90;;;18.00;99.90;;;;;;5021121;28;20706;-68
2023/06/16 05:13:24;;;;;;;1999.90;999.90;;;18.10;99.90;;;;;;5019171;28;20538;-68
2023/06/16 05:15:50;;;;;;;1999.90;999.90;;;18.20;99.90;;;;;;5016587;28;20172;-68
2023/06/16 05:18:16;;;;;;;1999.90;999.90;;;18.20;99.90;;;;;;5013857;28;20651;-68
2023/06/16 05:20:42;;;;;;;1999.90;999.90;;;18.10;99.90;;;;;;5013638;28;20180;-68
2023/06/16 05:23:08;;;;;;;1999.90;999.90;;;18.10;99.90;;;;;;5013437;28;20407;-68
2023/06/16 05:25:33;;;;;;;1999.90;999.90;;;18.00;99.90;;;;;;5013379;28;20199;-68
2023/06/16 05:27:59;;;;;;;1999.90;999.90;;;18.00;99.90;;;;;;5013552;28;20257;-68
2023/06/16 05:30:24;;;;;;;1999.90;999.90;;;18.00;99.90;;;;;;5013443;28;20221;-67
2023/06/16 05:32:50;;;;;;;1999.90;999.90;;;18.10;99.90;;;;;;5013168;28;20170;-68
2023/06/16 05:35:15;;;;;;;1999.90;999.90;;;18.20;99.90;;;;;;5013283;28;20566;-68
2023/06/16 05:37:41;;;;;;;1999.90;999.90;;;18.40;99.90;;;;;;5013285;28;20262;-67
2023/06/16 05:40:07;;;;;;;1999.90;999.90;;;18.50;99.90;;;;;;5013344;28;20546;-68
2023/06/16 05:42:33;;;;;;;1999.90;999.90;;;18.60;99.90;;;;;;5012965;28;20704;-68
2023/06/16 05:44:59;;;;;;;1999.90;999.90;;;18.70;99.90;;;;;;5012894;28;20554;-67
2023/06/16 05:47:24;;;;;;;1999.90;999.90;;;18.70;99.90;;;;;;5013135;28;20165;-68
2023/06/16 05:49:50;;;;;;;1999.90;999.90;;;18.70;99.90;;;;;;5013126;28;20380;-68
2023/06/16 05:52:15;;;;;;;1999.90;999.90;;;18.70;99.90;;;;;;5012787;28;20167;-68
2023/06/16 05:54:41;;;;;;;1999.90;999.90;;;18.80;99.90;;;;;;5012917;28;20285;-68
2023/06/16 05:57:07;;;;;;;1999.90;999.90;;;18.80;99.70;;;;;;5013019;28;20197;-68
2023/06/16 05:59:34;;;;;;;1999.90;999.90;;;18.80;99.20;;;;;;5012875;28;20245;-68
2023/06/16 06:02:00;;;;;;;1999.90;999.90;;;18.80;99.10;;;;;;5012626;28;20161;-68
2023/06/16 06:04:33;;;;;;;1999.90;999.90;;;18.90;98.20;;;;;;5012667;28;20431;-68
2023/06/16 06:07:00;;;;;;;1999.90;999.90;;;19.00;97.60;;;;;;5012814;28;20164;-68
2023/06/16 06:09:26;;;;;;;1999.90;999.90;;;19.00;98.40;;;;;;5012217;28;20956;-68
2023/06/16 06:11:52;;;;;;;1999.90;999.90;;;19.10;97.00;;;;;;5012352;28;20487;-68
2023/06/16 06:14:18;;;;;;;1999.90;999.90;;;19.10;97.10;;;;;;5012600;28;20430;-68
2023/06/16 06:16:44;;;;;;;1999.90;999.90;;;19.20;95.30;;;;;;5012640;28;20254;-68
2023/06/16 06:19:10;;;;;;;1999.90;999.90;;;19.20;96.00;;;;;;5012607;28;20408;-68
2023/06/16 06:21:36;;;;;;;1999.90;999.90;;;19.20;95.40;;;;;;5012422;28;20409;-68
2023/06/16 06:24:02;;;;;;;1999.90;999.90;;;19.30;95.00;;;;;;5012356;28;20451;-68
2023/06/16 06:26:28;;;;;;;1999.90;999.90;;;19.40;93.70;;;;;;5012348;28;20199;-68
2023/06/16 06:28:53;;;;;;;1999.90;999.90;;;19.40;93.80;;;;;;5011695;28;20418;-68
2023/06/16 06:31:19;;;;;;;1999.90;999.90;;;19.30;93.30;;;;;;5012154;28;20245;-68
2023/06/16 06:33:45;;;;;;;1999.90;999.90;;;19.30;92.50;;;;;;5012117;28;20681;-68
2023/06/16 06:36:11;;;;;;;1999.90;999.90;;;19.30;92.00;;;;;;5012669;28;20182;-70
2023/06/16 06:38:38;;;;;;;1999.90;999.90;;;19.50;92.40;;;;;;5012316;28;20413;-70
2023/06/16 06:41:04;;;;;;;1999.90;999.90;;;19.60;91.20;;;;;;5011993;28;20409;-70
2023/06/16 06:43:29;;;;;;;1999.90;999.90;;;19.80;95.40;;;;;;5012125;28;20487;-70
2023/06/16 06:45:55;;;;;;;1999.90;999.90;;;19.80;90.60;;;;;;5012482;28;20554;-70
2023/06/16 06:48:21;;;;;;;1999.90;999.90;;;19.90;90.10;;;;;;5012302;28;20165;-70
2023/06/16 06:50:48;;;;;;;1999.90;999.90;;;20.00;87.50;;;;;;5012350;28;20182;-70
2023/06/16 06:53:13;;;;;;;1999.90;999.90;;;19.90;85.80;;;;;;5012171;28;20258;-70
2023/06/16 06:55:39;;;;;;;1999.90;999.90;;;20.00;86.90;;;;;;5012456;28;20517;-69
2023/06/16 06:58:05;;;;;;;1999.90;999.90;;;20.10;85.30;;;;;;5012677;28;20186;-69
2023/06/16 07:00:30;;;;;;;1999.90;999.90;;;20.10;85.60;;;;;;5012538;28;20252;-68
2023/06/16 07:02:56;;;;;;;1999.90;999.90;;;20.30;84.70;;;;;;5011862;28;20258;-68
2023/06/16 07:05:21;;;;;;;1999.90;999.90;;;20.40;83.60;;;;;;5012065;28;20213;-68
2023/06/16 07:07:47;;;;;;;1999.90;999.90;;;20.50;80.60;;;;;;5012095;28;20603;-68
2023/06/16 07:10:13;;;;;;;1999.90;999.90;;;20.60;77.80;;;;;;5012018;28;20172;-68
2023/06/16 07:12:38;;;;;;;1999.90;999.90;;;20.60;79.70;;;;;;5011792;28;20162;-68
2023/06/16 07:15:04;;;;;;;1999.90;999.90;;;20.70;77.20;;;;;;5011893;28;20284;-68
2023/06/16 07:17:34;;;;;;;1999.90;999.90;;;20.70;75.90;;;;;;5012024;28;20172;-68
2023/06/16 07:20:00;;;;;;;1999.90;999.90;;;20.70;77.70;;;;;;5011935;28;20419;-68
2023/06/16 07:22:25;;;;;;;1999.90;999.90;;;20.80;78.60;;;;;;5011588;28;20765;-68
2023/06/16 07:24:51;;;;;;;1999.90;999.90;;;20.90;82.20;;;;;;5011662;28;20458;-68
2023/06/16 07:27:17;;;;;;;1999.90;999.90;;;21.10;84.70;;;;;;5011983;28;20172;-68
2023/06/16 07:29:42;;;;;;;1999.90;999.90;;;21.20;79.40;;;;;;5011866;28;20159;-68
2023/06/16 07:32:08;;;;;;;1999.90;999.90;;;21.30;76.00;;;;;;5011577;28;20168;-67
2023/06/16 07:34:33;;;;;;;1999.90;999.90;;;21.50;75.30;;;;;;5011788;28;20678;-68
2023/06/16 07:37:00;;;;;;;1999.90;999.90;;;21.50;76.40;;;;;;5011796;28;20176;-68
2023/06/16 07:39:25;;;;;;;1999.90;999.90;;;21.60;75.80;;;;;;5013120;28;20168;-68
2023/06/16 07:41:51;;;;;;;1999.90;999.90;;;21.70;74.70;;;;;;5015450;28;20978;-68
2023/06/16 07:44:16;;;;;;;1999.90;999.90;;;21.70;73.50;;;;;;5015205;28;20205;-68
2023/06/16 07:46:45;;;;;;;1999.90;999.90;;;21.80;69.30;;;;;;5015487;28;20241;-68
2023/06/16 07:49:14;;;;;;;1999.90;999.90;;;21.90;64.60;;;;;;5015475;28;20184;-68
2023/06/16 07:51:40;;;;;;;1999.90;999.90;;;21.90;62.50;;;;;;5014982;28;20901;-68
2023/06/16 07:54:07;;;;;;;1999.90;999.90;;;22.00;61.30;;;;;;5015185;28;20433;-68
2023/06/16 07:56:32;;;;;;;1999.90;999.90;;;22.10;59.90;;;;;;5015230;28;20381;-67
2023/06/16 07:58:58;;;;;;;1999.90;999.90;;;22.10;60.60;;;;;;5015264;28;20421;-68
2023/06/16 08:01:23;;;;;;;1999.90;999.90;;;22.00;61.90;;;;;;5015027;28;20203;-68
2023/06/16 08:03:49;;;;;;;1999.90;999.90;;;22.20;64.10;;;;;;5015011;28;20198;-68
2023/06/16 08:06:15;;;;;;;1999.90;999.90;;;22.20;63.00;;;;;;5011204;28;20675;-70
2023/06/16 08:08:41;;;;;;;1999.90;999.90;;;22.30;68.20;;;;;;5009967;28;20268;-68
2023/06/16 08:11:07;;;;;;;1999.90;999.90;;;22.50;62.90;;;;;;5010030;28;20474;-67
2023/06/16 08:13:33;;;;;;;1999.90;999.90;;;22.60;61.80;;;;;;5012375;28;20198;-68
2023/06/16 08:15:59;;;;;;;1999.90;999.90;;;22.70;59.50;;;;;;5014388;28;20618;-69
2023/06/16 08:18:24;;;;;;;1999.90;999.90;;;22.80;56.90;;;;;;5014292;28;20177;-69
2023/06/16 08:20:51;;;;;;;1999.90;999.90;;;22.90;56.50;;;;;;5012826;28;20402;-69
2023/06/16 08:23:17;;;;;;;1999.90;999.90;;;22.90;54.50;;;;;;5014397;28;20184;-69
2023/06/16 08:25:43;;;;;;;1999.90;999.90;;;23.00;53.20;;;;;;5014646;28;20463;-71
2023/06/16 08:28:08;;;;;;;1999.90;999.90;;;23.10;50.90;;;;;;5010565;28;20185;-69
2023/06/16 08:30:37;;;;;;;1999.90;999.90;;;23.30;51.30;;;;;;5008840;28;20190;-68
2023/06/16 08:33:04;;;;;;;1999.90;999.90;;;23.30;52.40;;;;;;5013414;28;20169;-68
2023/06/16 08:35:30;;;;;;;1999.90;999.90;;;23.40;54.40;;;;;;5013748;28;20403;-68
2023/06/16 08:37:55;;;;;;;1999.90;999.90;;;23.40;49.50;;;;;;5014177;28;20412;-68
2023/06/16 08:40:21;;;;;;;1999.90;999.90;;;23.40;48.90;;;;;;5014354;28;20247;-68
2023/06/16 08:42:47;;;;;;;1999.90;999.90;;;23.40;49.30;;;;;;5010380;28;20723;-68
2023/06/16 08:45:13;;;;;;;1999.90;999.90;;;23.50;48.70;;;;;;5012816;28;20221;-68
2023/06/16 08:47:42;;;;;;;1999.90;999.90;;;23.40;50.30;;;;;;5014234;28;20495;-69
2023/06/16 08:50:09;;;;;;;1999.90;999.90;;;23.50;49.10;;;;;;5013292;28;20538;-68
2023/06/16 08:52:38;;;;;;;1999.90;999.90;;;23.60;48.80;;;;;;5013234;28;20382;-69
2023/06/16 08:55:06;;;;;;;1999.90;999.90;;;23.70;48.60;;;;;;5012875;28;20432;-69
2023/06/16 08:57:33;;;;;;;1999.90;999.90;;;23.70;49.80;;;;;;5011607;28;20427;-69
2023/06/16 09:00:00;;;;;;;1999.90;999.90;;;23.70;45.70;;;;;;5013416;28;20905;-69
2023/06/16 09:02:29;;;;;;;1999.90;999.90;;;23.70;44.00;;;;;;5013753;28;20920;-69
2023/06/16 09:04:56;;;;;;;1999.90;999.90;;;23.60;40.10;;;;;;5012920;28;20980;-69
2023/06/16 09:07:27;;;;;;;1999.90;999.90;;;23.50;47.10;;;;;;5013925;28;20761;-69
2023/06/16 09:09:53;;;;;;;1999.90;999.90;;;23.40;45.30;;;;;;5014019;28;20382;-69
2023/06/16 09:12:18;;;;;;;1999.90;999.90;;;23.60;44.70;;;;;;4995307;28;20777;-69
2023/06/16 09:14:49;;;;;;;1999.90;999.90;;;23.70;44.30;;;;;;5013458;28;20432;-68
2023/06/16 09:17:18;;;;;;;1999.90;999.90;;;23.90;43.20;;;;;;5013834;28;20161;-69
2023/06/16 09:19:47;;;;;;;1999.90;999.90;;;24.10;37.90;;;;;;5013218;28;20746;-68
2023/06/16 09:22:18;;;;;;;1999.90;999.90;;;24.30;35.80;;;;;;5013538;28;20389;-68
2023/06/16 09:24:54;;;;;;;1999.90;999.90;;;24.30;32.30;;;;;;5013271;28;20426;-69
2023/06/16 09:27:20;;;;;;;1999.90;999.90;;;24.00;30.90;;;;;;5013333;28;20439;-68
2023/06/16 09:29:58;;;;;;;1999.90;999.90;;;24.20;31.90;;;;;;5014006;28;20850;-69
2023/06/16 09:32:24;;;;;;;1999.90;999.90;;;24.30;29.80;;;;;;5013880;28;20153;-68
2023/06/16 09:34:50;;;;;;;1999.90;999.90;;;24.30;28.60;;;;;;5013095;28;20402;-69
2023/06/16 09:37:19;;;;;;;1999.90;999.90;;;24.50;29.40;;;;;;5013745;28;20504;-69
2023/06/16 09:39:46;;;;;;;1999.90;999.90;;;24.80;31.60;;;;;;5013308;28;20200;-69
2023/06/16 09:42:12;;;;;;;1999.90;999.90;;;25.10;28.00;;;;;;5012301;28;20452;-69
2023/06/16 09:44:40;;;;;;;1999.90;999.90;;;25.30;27.70;;;;;;5012859;28;20478;-69
2023/06/16 09:47:06;;;;;;;1999.90;999.90;;;25.60;25.40;;;;;;5013207;28;20178;-69
2023/06/16 09:49:32;;;;;;;1999.90;999.90;;;25.80;25.10;;;;;;5012634;28;20884;-69
2023/06/16 09:51:59;;;;;;;1999.90;999.90;;;25.90;21.90;;;;;;5013480;28;20517;-69
2023/06/16 09:54:26;;;;;;;1999.90;999.90;;;26.00;21.80;;;;;;5013351;28;20669;-68
2023/06/16 09:56:59;;;;;;;1999.90;999.90;;;25.90;18.30;;;;;;5012615;28;20404;-68
2023/06/16 09:59:26;;;;;;;1999.90;999.90;;;25.60;16.00;;;;;;5013262;28;20442;-69
2023/06/16 10:01:54;;;;;;;1999.90;999.90;;;25.70;17.10;;;;;;5012748;28;20390;-69
2023/06/16 10:04:22;;;;;;;1999.90;999.90;;;25.30;16.90;;;;;;5012951;28;20403;-69
2023/06/16 10:07:02;;;;;;;1999.90;999.90;;;25.60;16.70;;;;;;5013129;28;20413;-68
2023/06/16 10:09:35;;;;;;;1999.90;999.90;;;25.90;17.50;;;;;;5012782;28;20466;-68
2023/06/16 10:12:02;;;;;;;1999.90;999.90;;;26.10;16.50;;;;;;5012180;28;20438;-68
2023/06/16 10:14:31;;;;;;;1999.90;999.90;;;26.20;10.80;;;;;;5013071;28;20461;-68
2023/06/16 10:16:58;;;;;;;1999.90;999.90;;;26.30;8.30;;;;;;5013055;28;20393;-69
2023/06/16 10:19:25;;;;;;;1999.90;999.90;;;26.30;7.30;;;;;;5012562;28;20441;-69
2023/06/16 10:21:50;;;;;;;1999.90;999.90;;;26.20;8.10;;;;;;5012400;28;20387;-69
2023/06/16 10:24:17;;;;;;;1999.90;999.90;;;26.40;7.90;;;;;;5013147;28;20443;-68
2023/06/16 10:26:43;;;;;;;1999.90;999.90;;;26.50;7.00;;;;;;5012047;28;20205;-68
2023/06/16 10:29:16;;;;;;;1999.90;999.90;;;26.80;6.70;;;;;;5012717;28;20745;-68
2023/06/16 10:31:43;;;;;;;1999.90;999.90;;;26.70;4.50;;;;;;5012311;28;20414;-68
2023/06/16 10:34:18;;;;;;;1999.90;999.90;;;26.40;4.80;;;;;;5012483;28;20494;-68
2023/06/16 10:36:43;;;;;;;1999.90;999.90;;;26.30;4.80;;;;;;5012368;28;20843;-69
2023/06/16 10:39:13;;;;;;;1999.90;999.90;;;26.10;3.10;;;;;;5012296;28;20530;-69
2023/06/16 10:41:54;;;;;;;1999.90;999.90;;;26.00;7.10;;;;;;5011405;28;20255;-69
2023/06/16 10:44:26;;;;;;;1999.90;999.90;;;25.90;6.40;;;;;;5011762;28;20421;-69
2023/06/16 10:47:21;;;;;;;1999.90;999.90;;;26.10;7.50;;;;;;5011474;28;20394;-69
2023/06/16 10:49:47;;;;;;;1999.90;999.90;;;26.50;6.70;;;;;;5007056;28;20921;-68
2023/06/16 10:52:37;;;;;;;1999.90;999.90;;;26.30;6.80;;;;;;5012005;28;20465;-68
2023/06/16 10:55:18;;;;;;;1999.90;999.90;;;25.90;7.00;;;;;;5012272;28;20410;-68
2023/06/16 10:57:46;;;;;;;1999.90;999.90;;;25.80;7.10;;;;;;5012416;28;20378;-69
2023/06/16 11:00:14;;;;;;;1999.90;999.90;;;25.90;7.90;;;;;;5012402;28;20404;-68
2023/06/16 11:03:00;;;;;;;1999.90;999.90;;;26.20;7.80;;;;;;5011936;28;20467;-68
2023/06/16 11:05:36;;;;;;;1999.90;999.90;;;26.10;7.70;;;;;;5012189;28;20497;-69
2023/06/16 11:08:05;;;;;;;1999.90;999.90;;;26.30;7.80;;;;;;5012459;28;20461;-69
2023/06/16 11:10:48;;;;;;;1999.90;999.90;;;26.80;7.30;;;;;;5012176;28;20478;-69
2023/06/16 11:13:14;;;;;;;1999.90;999.90;;;27.00;5.80;;;;;;5012424;28;20782;-69
2023/06/16 11:15:41;;;;;;;1999.90;999.90;;;27.30;4.50;;;;;;5015446;28;20415;-69
2023/06/16 11:18:07;;;;;;;1999.90;999.90;;;27.70;5.50;;;;;;5015528;28;20435;-69
2023/06/16 11:20:37;;;;;;;1999.90;999.90;;;28.00;4.20;;;;;;5015819;28;20451;-69
2023/06/16 11:23:03;;;;;;;1999.90;999.90;;;27.90;2.30;;;;;;5015340;28;20268;-69
2023/06/16 11:25:28;;;;;;;1999.90;999.90;;;27.70;2.90;;;;;;5015448;28;21100;-69
2023/06/16 11:27:54;;;;;;;1999.90;999.90;;;27.60;2.90;;;;;;5016091;28;20260;-69
2023/06/16 11:30:20;;;;;;;1999.90;999.90;;;27.40;1.40;;;;;;5016027;28;20173;-69
2023/06/16 11:32:47;;;;;;;1999.90;999.90;;;27.20;1.20;;;;;;5015089;28;20165;-69
2023/06/16 11:35:13;;;;;;;1999.90;999.90;;;27.60;2.80;;;;;;5015956;28;20427;-69
2023/06/16 11:37:39;;;;;;;1999.90;999.90;;;27.80;1.20;;;;;;5016104;28;20419;-69
2023/06/16 11:40:05;;;;;;;1999.90;999.90;;;27.50;1.80;;;;;;5015524;28;20169;-68
2023/06/16 11:42:32;;;;;;;1999.90;999.90;;;27.40;1.40;;;;;;5016173;28;20181;-69
2023/06/16 11:44:58;;;;;;;1999.90;999.90;;;27.40;1.00;;;;;;5015647;28;20977;-69
2023/06/16 11:47:25;;;;;;;1999.90;999.90;;;28.00;1.30;;;;;;5015241;28;20408;-68
2023/06/16 11:49:51;;;;;;;1999.90;999.90;;;27.60;1.00;;;;;;5015970;28;20172;-69
2023/06/16 11:52:18;;;;;;;1999.90;999.90;;;27.40;1.00;;;;;;5015409;28;20400;-69
2023/06/16 11:54:43;;;;;;;1999.90;999.90;;;27.40;1.00;;;;;;5015252;28;20903;-69
2023/06/16 11:57:09;;;;;;;1999.90;999.90;;;27.80;1.00;;;;;;5015535;28;20418;-69
2023/06/16 11:59:35;;;;;;;1999.90;999.90;;;28.10;1.00;;;;;;5015453;28;20173;-69
2023/06/16 12:02:03;;;;;;;1999.90;999.90;;;28.30;1.00;;;;;;5014568;28;20423;-69